Time,TemperatureF,DewpointF,PressureIn,WindDirection,WindDirectionDegrees,WindSpeedMPH,WindSpeedGustMPH,Humidity,HourlyPrecipIn,Conditions,Clouds,dailyrainin,SoftwareType,DateUTC
2013-03-14 00:02:00,31.0,20.0,-100.00,WSW,248,4.0,11.0,63,-99.99,,,-99.99,,2013-03-14 06:02:00,
2013-03-14 00:12:00,31.0,20.0,-100.00,WSW,248,4.0,11.0,63,-99.99,,,-99.99,,2013-03-14 06:12:00,
2013-03-14 00:22:00,31.0,19.0,-100.00,WSW,251,7.0,15.0,60,-99.99,,,-99.99,,2013-03-14 06:22:00,
2013-03-14 00:32:00,32.0,20.0,-100.00,West,268,4.0,11.0,60,-99.99,,,-99.99,,2013-03-14 06:32:00,
2013-03-14 00:42:00,32.0,20.0,-100.00,West,268,4.0,11.0,60,-99.99,,,-99.99,,2013-03-14 06:42:00,
2013-03-14 00:52:00,32.0,20.0,-100.00,West,271,5.0,13.0,61,-99.99,,,-99.99,,2013-03-14 06:52:00,
2013-03-14 01:02:00,31.0,19.0,-100.00,West,264,5.0,13.0,61,-99.99,,,-99.99,,2013-03-14 07:02:00,
2013-03-14 01:11:00,31.0,19.0,-100.00,West,264,5.0,13.0,61,-99.99,,,-99.99,,2013-03-14 07:11:00,
2013-03-14 01:22:00,32.0,20.0,-100.00,West,270,6.0,12.0,61,-99.99,,,-99.99,,2013-03-14 07:22:00,
2013-03-14 01:32:00,32.0,20.0,-100.00,West,279,6.0,12.0,62,-99.99,,,-99.99,,2013-03-14 07:32:00,
2013-03-14 01:42:00,32.0,20.0,-100.00,West,279,6.0,12.0,62,-99.99,,,-99.99,,2013-03-14 07:42:00,
2013-03-14 01:52:00,32.0,20.0,-100.00,West,270,5.0,11.0,61,-99.99,,,-99.99,,2013-03-14 07:52:00,
2013-03-14 02:02:00,32.0,20.0,-100.00,West,280,6.0,20.0,62,-99.99,,,-99.99,,2013-03-14 08:02:00,
2013-03-14 02:12:00,32.0,20.0,-100.00,West,280,6.0,20.0,62,-99.99,,,-99.99,,2013-03-14 08:12:00,
2013-03-14 02:21:00,32.0,21.0,-100.00,West,275,6.0,18.0,63,-99.99,,,-99.99,,2013-03-14 08:21:00,
2013-03-14 02:31:00,31.0,20.0,-100.00,West,272,7.0,17.0,63,-99.99,,,-99.99,,2013-03-14 08:31:00,
2013-03-14 02:41:00,31.0,20.0,-100.00,West,272,7.0,17.0,63,-99.99,,,-99.99,,2013-03-14 08:41:00,
2013-03-14 02:52:00,31.0,20.0,-100.00,WNW,287,7.0,18.0,63,-99.99,,,-99.99,,2013-03-14 08:52:00,
2013-03-14 03:01:00,32.0,20.0,-100.00,West,274,6.0,19.0,62,-99.99,,,-99.99,,2013-03-14 09:01:00,
2013-03-14 03:12:00,32.0,20.0,-100.00,West,274,6.0,19.0,62,-99.99,,,-99.99,,2013-03-14 09:12:00,
2013-03-14 03:22:00,31.0,20.0,-100.00,West,271,6.0,15.0,62,-99.99,,,-99.99,,2013-03-14 09:22:00,
2013-03-14 03:32:00,31.0,19.0,-100.00,West,266,6.0,16.0,61,-99.99,,,-99.99,,2013-03-14 09:32:00,
2013-03-14 03:42:00,31.0,19.0,-100.00,West,266,6.0,16.0,61,-99.99,,,-99.99,,2013-03-14 09:42:00,
2013-03-14 03:52:00,31.0,19.0,-100.00,West,263,5.0,19.0,61,-99.99,,,-99.99,,2013-03-14 09:52:00,
2013-03-14 04:02:00,30.0,20.0,-100.00,SW,217,3.0,8.0,65,-99.99,,,-99.99,,2013-03-14 10:02:00,
2013-03-14 04:12:00,30.0,20.0,-100.00,SW,217,3.0,8.0,65,-99.99,,,-99.99,,2013-03-14 10:12:00,
2013-03-14 04:22:00,30.0,19.0,-100.00,West,272,4.0,12.0,63,-99.99,,,-99.99,,2013-03-14 10:22:00,
2013-03-14 04:32:00,30.0,19.0,-100.00,West,267,5.0,15.0,62,-99.99,,,-99.99,,2013-03-14 10:32:00,
2013-03-14 04:42:00,30.0,19.0,-100.00,West,267,5.0,15.0,62,-99.99,,,-99.99,,2013-03-14 10:42:00,
2013-03-14 04:52:00,30.0,19.0,-100.00,West,276,6.0,14.0,62,-99.99,,,-99.99,,2013-03-14 10:52:00,
2013-03-14 05:02:00,31.0,18.0,-100.00,West,267,5.0,11.0,59,-99.99,,,-99.99,,2013-03-14 11:02:00,
2013-03-14 05:12:00,31.0,18.0,-100.00,West,267,5.0,11.0,59,-99.99,,,-99.99,,2013-03-14 11:12:00,
2013-03-14 05:22:00,31.0,18.0,-100.00,WSW,255,6.0,15.0,58,-99.99,,,-99.99,,2013-03-14 11:22:00,
2013-03-14 05:32:00,31.0,19.0,-100.00,WSW,258,5.0,15.0,60,-99.99,,,-99.99,,2013-03-14 11:32:00,
2013-03-14 05:42:00,31.0,19.0,-100.00,WSW,258,5.0,15.0,60,-99.99,,,-99.99,,2013-03-14 11:42:00,
2013-03-14 05:52:00,31.0,18.0,-100.00,West,262,6.0,21.0,57,-99.99,,,-99.99,,2013-03-14 11:52:00,
2013-03-14 06:02:00,31.0,17.0,-100.00,WSW,258,5.0,14.0,56,-99.99,,,-99.99,,2013-03-14 12:02:00,
2013-03-14 06:12:00,31.0,17.0,-100.00,WSW,258,5.0,14.0,56,-99.99,,,-99.99,,2013-03-14 12:12:00,
2013-03-14 06:22:00,31.0,18.0,-100.00,SW,233,4.0,10.0,58,-99.99,,,-99.99,,2013-03-14 12:22:00,
2013-03-14 06:32:00,31.0,18.0,-100.00,WSW,244,4.0,9.0,58,-99.99,,,-99.99,,2013-03-14 12:32:00,
2013-03-14 06:42:00,31.0,18.0,-100.00,WSW,244,4.0,9.0,58,-99.99,,,-99.99,,2013-03-14 12:42:00,
2013-03-14 06:52:00,31.0,17.0,-100.00,WSW,257,4.0,11.0,56,-99.99,,,-99.99,,2013-03-14 12:52:00,
2013-03-14 07:02:00,31.0,18.0,-100.00,WSW,246,3.0,10.0,58,-99.99,,,-99.99,,2013-03-14 13:02:00,
2013-03-14 07:12:00,31.0,18.0,-100.00,WSW,246,3.0,10.0,58,-99.99,,,-99.99,,2013-03-14 13:12:00,
2013-03-14 07:22:00,31.0,18.0,-100.00,WSW,256,4.0,8.0,57,-99.99,,,-99.99,,2013-03-14 13:22:00,
2013-03-14 07:32:00,30.0,17.0,-100.00,WSW,254,3.0,8.0,58,-99.99,,,-99.99,,2013-03-14 13:32:00,
2013-03-14 07:42:00,30.0,17.0,-100.00,WSW,254,3.0,8.0,58,-99.99,,,-99.99,,2013-03-14 13:42:00,
2013-03-14 07:52:00,30.0,17.0,-100.00,WSW,247,4.0,10.0,57,-99.99,,,-99.99,,2013-03-14 13:52:00,
2013-03-14 08:02:00,31.0,18.0,-100.00,WSW,242,5.0,12.0,57,-99.99,,,-99.99,,2013-03-14 14:02:00,
2013-03-14 08:12:00,31.0,18.0,-100.00,WSW,242,5.0,12.0,57,-99.99,,,-99.99,,2013-03-14 14:12:00,
2013-03-14 08:22:00,30.0,17.0,-100.00,WSW,242,4.0,8.0,58,-99.99,,,-99.99,,2013-03-14 14:22:00,
2013-03-14 08:32:00,31.0,18.0,-100.00,WSW,250,3.0,7.0,58,-99.99,,,-99.99,,2013-03-14 14:32:00,
2013-03-14 08:42:00,31.0,18.0,-100.00,WSW,250,3.0,7.0,58,-99.99,,,-99.99,,2013-03-14 14:42:00,
2013-03-14 08:53:00,31.0,17.0,-100.00,WSW,248,3.0,5.0,56,-99.99,,,-99.99,,2013-03-14 14:53:00,
2013-03-14 09:02:00,31.0,18.0,-100.00,SSW,204,2.0,4.0,57,-99.99,,,-99.99,,2013-03-14 15:02:00,
2013-03-14 09:12:00,31.0,18.0,-100.00,SSW,204,2.0,4.0,57,-99.99,,,-99.99,,2013-03-14 15:12:00,
2013-03-14 09:22:00,32.0,19.0,-100.00,WSW,244,2.0,3.0,57,-99.99,,,-99.99,,2013-03-14 15:22:00,
2013-03-14 09:32:00,32.0,19.0,-100.00,WSW,244,2.0,3.0,57,-99.99,,,-99.99,,2013-03-14 15:32:00,
2013-03-14 09:42:00,32.0,19.0,-100.00,WSW,244,2.0,3.0,57,-99.99,,,-99.99,,2013-03-14 15:42:00,
2013-03-14 11:02:00,36.0,20.0,-100.00,SSE,156,1.0,6.0,52,-99.99,,,-99.99,,2013-03-14 17:02:00,
2013-03-14 11:12:00,36.0,20.0,-100.00,SSE,156,1.0,6.0,52,-99.99,,,-99.99,,2013-03-14 17:12:00,
2013-03-14 11:23:00,36.0,20.0,-100.00,SSW,194,2.0,4.0,52,-99.99,,,-99.99,,2013-03-14 17:23:00,
2013-03-14 11:32:00,38.0,20.0,-100.00,SSW,192,1.0,3.0,47,-99.99,,,-99.99,,2013-03-14 17:32:00,
2013-03-14 11:42:00,38.0,20.0,-100.00,SSW,192,1.0,3.0,47,-99.99,,,-99.99,,2013-03-14 17:42:00,
2013-03-14 11:52:00,40.0,20.0,-100.00,SSE,160,4.0,7.0,44,-99.99,,,-99.99,,2013-03-14 17:52:00,
2013-03-14 12:02:00,39.0,20.0,-100.00,SSE,161,4.0,7.0,46,-99.99,,,-99.99,,2013-03-14 18:02:00,
2013-03-14 12:12:00,39.0,20.0,-100.00,SSE,161,4.0,7.0,46,-99.99,,,-99.99,,2013-03-14 18:12:00,
2013-03-14 12:22:00,40.0,20.0,-100.00,SSE,162,6.0,9.0,45,-99.99,,,-99.99,,2013-03-14 18:22:00,
2013-03-14 12:32:00,40.0,19.0,-100.00,SSE,161,5.0,11.0,43,-99.99,,,-99.99,,2013-03-14 18:32:00,
2013-03-14 12:42:00,40.0,19.0,-100.00,SSE,161,5.0,11.0,43,-99.99,,,-99.99,,2013-03-14 18:42:00,
2013-03-14 12:52:00,42.0,21.0,-100.00,South,172,4.0,9.0,42,-99.99,,,-99.99,,2013-03-14 18:52:00,
2013-03-14 13:02:00,42.0,20.0,-100.00,ESE,115,2.0,7.0,41,-99.99,,,-99.99,,2013-03-14 19:02:00,
2013-03-14 13:12:00,42.0,20.0,-100.00,ESE,115,2.0,7.0,41,-99.99,,,-99.99,,2013-03-14 19:12:00,
2013-03-14 13:22:00,43.0,21.0,-100.00,South,183,3.0,8.0,41,-99.99,,,-99.99,,2013-03-14 19:22:00,
2013-03-14 13:32:00,43.0,21.0,-100.00,South,183,3.0,8.0,41,-99.99,,,-99.99,,2013-03-14 19:32:00,
2013-03-14 13:42:00,43.0,21.0,-100.00,South,183,3.0,8.0,41,-99.99,,,-99.99,,2013-03-14 19:42:00,
2013-03-14 14:32:00,45.0,21.0,-100.00,SSE,147,3.0,9.0,38,-99.99,,,-99.99,,2013-03-14 20:32:00,
2013-03-14 14:42:00,45.0,21.0,-100.00,SSE,147,3.0,9.0,38,-99.99,,,-99.99,,2013-03-14 20:42:00,
2013-03-14 14:52:00,46.0,21.0,-100.00,South,171,2.0,11.0,36,-99.99,,,-99.99,,2013-03-14 20:52:00,
2013-03-14 15:02:00,45.0,21.0,-100.00,SW,232,4.0,14.0,38,-99.99,,,-99.99,,2013-03-14 21:02:00,
2013-03-14 15:12:00,45.0,21.0,-100.00,SW,232,4.0,14.0,38,-99.99,,,-99.99,,2013-03-14 21:12:00,
2013-03-14 15:22:00,45.0,20.0,-100.00,West,264,4.0,13.0,37,-99.99,,,-99.99,,2013-03-14 21:22:00,
2013-03-14 15:32:00,45.0,20.0,-100.00,West,264,4.0,13.0,37,-99.99,,,-99.99,,2013-03-14 21:32:00,
2013-03-14 15:43:00,45.0,20.0,-100.00,West,264,4.0,13.0,37,-99.99,,,-99.99,,2013-03-14 21:43:00,
2013-03-14 16:03:00,44.0,18.0,-100.00,WNW,293,3.0,9.0,35,-99.99,,,-99.99,,2013-03-14 22:03:00,
2013-03-14 16:12:00,44.0,18.0,-100.00,WNW,293,3.0,9.0,35,-99.99,,,-99.99,,2013-03-14 22:12:00,
2013-03-14 16:23:00,43.0,20.0,-100.00,WSW,248,4.0,14.0,39,-99.99,,,-99.99,,2013-03-14 22:23:00,
2013-03-14 16:32:00,41.0,18.0,-100.00,WNW,288,8.0,17.0,39,-99.99,,,-99.99,,2013-03-14 22:32:00,
2013-03-14 16:42:00,41.0,18.0,-100.00,WNW,288,8.0,17.0,39,-99.99,,,-99.99,,2013-03-14 22:42:00,
2013-03-14 16:52:00,41.0,18.0,-100.00,WNW,283,6.0,16.0,39,-99.99,,,-99.99,,2013-03-14 22:52:00,
2013-03-14 17:02:00,41.0,17.0,-100.00,WNW,289,5.0,11.0,38,-99.99,,,-99.99,,2013-03-14 23:02:00,
2013-03-14 17:12:00,41.0,17.0,-100.00,WNW,289,5.0,11.0,38,-99.99,,,-99.99,,2013-03-14 23:12:00,
2013-03-14 17:22:00,41.0,17.0,-100.00,WNW,286,5.0,15.0,38,-99.99,,,-99.99,,2013-03-14 23:22:00,
2013-03-14 17:32:00,40.0,17.0,-100.00,West,269,5.0,14.0,39,-99.99,,,-99.99,,2013-03-14 23:32:00,
2013-03-14 17:42:00,40.0,17.0,-100.00,West,269,5.0,14.0,39,-99.99,,,-99.99,,2013-03-14 23:42:00,
2013-03-14 17:53:00,41.0,17.0,-100.00,WSW,245,2.0,9.0,38,-99.99,,,-99.99,,2013-03-14 23:53:00,
2013-03-14 18:02:00,40.0,17.0,-100.00,NW,323,3.0,8.0,39,-99.99,,,-99.99,,2013-03-15 00:02:00,
2013-03-14 18:12:00,40.0,17.0,-100.00,NW,323,3.0,8.0,39,-99.99,,,-99.99,,2013-03-15 00:12:00,
2013-03-14 18:22:00,40.0,18.0,-100.00,NW,304,7.0,15.0,40,-99.99,,,-99.99,,2013-03-15 00:22:00,
2013-03-14 18:32:00,39.0,17.0,-100.00,West,274,6.0,16.0,40,-99.99,,,-99.99,,2013-03-15 00:32:00,
2013-03-14 18:42:00,39.0,17.0,-100.00,West,274,6.0,16.0,40,-99.99,,,-99.99,,2013-03-15 00:42:00,
2013-03-14 18:52:00,38.0,16.0,-100.00,WNW,293,7.0,17.0,41,-99.99,,,-99.99,,2013-03-15 00:52:00,
2013-03-14 19:02:00,38.0,16.0,-100.00,WNW,288,5.0,12.0,40,-99.99,,,-99.99,,2013-03-15 01:02:00,
2013-03-14 19:11:00,38.0,16.0,-100.00,WNW,288,5.0,12.0,40,-99.99,,,-99.99,,2013-03-15 01:11:00,
2013-03-14 19:22:00,37.0,15.0,-100.00,West,263,6.0,12.0,40,-99.99,,,-99.99,,2013-03-15 01:22:00,
2013-03-14 19:32:00,37.0,14.0,-100.00,West,281,8.0,20.0,39,-99.99,,,-99.99,,2013-03-15 01:32:00,
2013-03-14 19:42:00,37.0,14.0,-100.00,West,281,8.0,20.0,39,-99.99,,,-99.99,,2013-03-15 01:42:00,
2013-03-14 19:52:00,37.0,14.0,-100.00,West,274,9.0,19.0,39,-99.99,,,-99.99,,2013-03-15 01:52:00,
2013-03-14 20:02:00,37.0,14.0,-100.00,WNW,285,9.0,22.0,38,-99.99,,,-99.99,,2013-03-15 02:02:00,
2013-03-14 20:12:00,37.0,14.0,-100.00,WNW,285,9.0,22.0,38,-99.99,,,-99.99,,2013-03-15 02:12:00,
2013-03-14 20:22:00,37.0,13.0,-100.00,WNW,288,12.0,28.0,36,-99.99,,,-99.99,,2013-03-15 02:22:00,
2013-03-14 20:32:00,36.0,11.0,-100.00,WNW,302,11.0,24.0,35,-99.99,,,-99.99,,2013-03-15 02:32:00,
2013-03-14 20:42:00,36.0,11.0,-100.00,WNW,302,11.0,24.0,35,-99.99,,,-99.99,,2013-03-15 02:42:00,
2013-03-14 20:52:00,36.0,10.0,-100.00,NW,304,13.0,24.0,34,-99.99,,,-99.99,,2013-03-15 02:52:00,
2013-03-14 21:02:00,36.0,12.0,-100.00,WNW,296,9.0,24.0,36,-99.99,,,-99.99,,2013-03-15 03:02:00,
2013-03-14 21:12:00,36.0,12.0,-100.00,WNW,296,9.0,24.0,36,-99.99,,,-99.99,,2013-03-15 03:12:00,
2013-03-14 21:22:00,36.0,11.0,-100.00,West,279,8.0,20.0,35,-99.99,,,-99.99,,2013-03-15 03:22:00,
2013-03-14 21:32:00,36.0,11.0,-100.00,West,279,10.0,29.0,35,-99.99,,,-99.99,,2013-03-15 03:32:00,
2013-03-14 21:42:00,36.0,11.0,-100.00,West,279,10.0,29.0,35,-99.99,,,-99.99,,2013-03-15 03:42:00,
2013-03-14 21:53:00,37.0,13.0,-100.00,WNW,284,10.0,26.0,36,-99.99,,,-99.99,,2013-03-15 03:53:00,
2013-03-14 22:03:00,37.0,14.0,-100.00,WNW,287,11.0,25.0,38,-99.99,,,-99.99,,2013-03-15 04:03:00,
2013-03-14 22:12:00,37.0,14.0,-100.00,WNW,287,11.0,25.0,38,-99.99,,,-99.99,,2013-03-15 04:12:00,
2013-03-14 22:22:00,37.0,14.0,-100.00,WNW,284,10.0,20.0,38,-99.99,,,-99.99,,2013-03-15 04:22:00,
2013-03-14 22:32:00,37.0,14.0,-100.00,WNW,283,10.0,25.0,39,-99.99,,,-99.99,,2013-03-15 04:32:00,
2013-03-14 22:42:00,37.0,14.0,-100.00,WNW,283,10.0,25.0,39,-99.99,,,-99.99,,2013-03-15 04:42:00,
2013-03-14 22:53:00,37.0,14.0,-100.00,West,276,9.0,20.0,39,-99.99,,,-99.99,,2013-03-15 04:53:00,
2013-03-14 23:02:00,37.0,14.0,-100.00,WNW,290,9.0,23.0,39,-99.99,,,-99.99,,2013-03-15 05:02:00,
2013-03-14 23:12:00,37.0,14.0,-100.00,WNW,290,9.0,23.0,39,-99.99,,,-99.99,,2013-03-15 05:12:00,
2013-03-14 23:22:00,37.0,15.0,-100.00,WNW,283,9.0,22.0,40,-99.99,,,-99.99,,2013-03-15 05:22:00,
2013-03-14 23:32:00,37.0,16.0,-100.00,West,276,9.0,29.0,41,-99.99,,,-99.99,,2013-03-15 05:32:00,
2013-03-14 23:42:00,37.0,16.0,-100.00,West,276,9.0,29.0,41,-99.99,,,-99.99,,2013-03-15 05:42:00,
2013-03-14 23:52:00,37.0,16.0,-100.00,West,281,9.0,19.0,41,-99.99,,,-99.99,,2013-03-15 05:52:00,